ヘルシンキ/ヴァンター の空港の天気 - METARとTAF

ヘルシンキ・ヴァンター国際空港 ( EFHK / HEL ) - フィンランド ヴァンター
飛行場実況気象(Metar)
観測時間11/30 19:20 EET (11/30 17:20 UTC)
風向・風速不定 2m/s
視程10km以上
天気現象弱い雪
少しの雲 雲底高度 90m
全天の8割程度の雲 雲底高度 370m
全天を覆う雲 雲底高度 490m
気温0℃
湿度100%
気圧1036hPa
METAREFHK 301720Z VRB03KT 9999 -SN FEW003 BKN012 OVC016 M00/M00 Q1036 NOSIG
過去の天気等 Google飛行場航空写真 Wunderground天気予報

過去48時間のMETAR

飛行場予報(TAF)
発表時間: 11/30 16:39 EET (11/30 14:39 UTC)
予報対象時間: 30日17時 EET ~ 1日17時 EET
風向・風速東 2m/s
視程10km以上
天気現象弱い雪
少しの雲 雲底高度 270m
全天の8割程度の雲 雲底高度 370m
全天を覆う雲 雲底高度 430m
30日17時 EET ~ 30日18時 EET に 確率 30% で一時的に
視程6000m
全天の8割程度の雲 雲底高度 270m
30日20時 EET ~ 1日8時 EET に 確率 30% で一時的に
視程4000m
天気現象もや
全天の8割程度の雲 雲底高度 120m
1日8時 EET ~ 1日17時 EET に一時的に
全天の4割程度の雲 雲底高度 370m
全天の8割程度の雲 雲底高度 610m
TAF EFHK 301439Z 3015/0115 08004KT 9999 -SN FEW009 BKN012 OVC014
PROB30 TEMPO 3015/3016 6000 BKN009
PROB30 TEMPO 3018/0106 4000 BR BKN004
TEMPO 0106/0115 SCT012 BKN020